sensor_id;sensor_type;location;lat;lon;timestamp;P1;durP1;ratioP1;P2;durP2;ratioP2
74995;SDS011;63545;51.690;5.202;2023-12-28T00:00:26;5.07;;;3.07;;
74995;SDS011;63545;51.690;5.202;2023-12-28T00:02:52;4.13;;;2.90;;
74995;SDS011;63545;51.690;5.202;2023-12-28T00:05:17;6.32;;;2.70;;
74995;SDS011;63545;51.690;5.202;2023-12-28T00:07:42;4.87;;;2.70;;
74995;SDS011;63545;51.690;5.202;2023-12-28T00:10:08;6.90;;;2.80;;
74995;SDS011;63545;51.690;5.202;2023-12-28T00:12:33;5.60;;;3.20;;
74995;SDS011;63545;51.690;5.202;2023-12-28T00:14:59;5.40;;;2.70;;
74995;SDS011;63545;51.690;5.202;2023-12-28T00:17:24;4.20;;;2.58;;
74995;SDS011;63545;51.690;5.202;2023-12-28T00:19:49;3.63;;;2.60;;
74995;SDS011;63545;51.690;5.202;2023-12-28T00:22:15;6.20;;;3.07;;
74995;SDS011;63545;51.690;5.202;2023-12-28T00:24:40;5.87;;;2.70;;
74995;SDS011;63545;51.690;5.202;2023-12-28T00:27:06;4.70;;;2.80;;
74995;SDS011;63545;51.690;5.202;2023-12-28T00:29:31;5.37;;;2.63;;
74995;SDS011;63545;51.690;5.202;2023-12-28T00:31:57;5.65;;;2.85;;
74995;SDS011;63545;51.690;5.202;2023-12-28T00:34:22;6.17;;;2.43;;
74995;SDS011;63545;51.690;5.202;2023-12-28T00:36:47;6.43;;;2.70;;
74995;SDS011;63545;51.690;5.202;2023-12-28T00:39:13;6.07;;;2.60;;
74995;SDS011;63545;51.690;5.202;2023-12-28T00:41:40;6.95;;;2.67;;
74995;SDS011;63545;51.690;5.202;2023-12-28T00:44:05;5.57;;;3.17;;
74995;SDS011;63545;51.690;5.202;2023-12-28T00:46:34;6.32;;;2.85;;
74995;SDS011;63545;51.690;5.202;2023-12-28T00:48:59;7.95;;;2.92;;
74995;SDS011;63545;51.690;5.202;2023-12-28T00:51:25;8.37;;;3.47;;
74995;SDS011;63545;51.690;5.202;2023-12-28T00:53:50;8.03;;;2.90;;
74995;SDS011;63545;51.690;5.202;2023-12-28T00:56:15;4.20;;;3.10;;
74995;SDS011;63545;51.690;5.202;2023-12-28T00:58:41;3.20;;;2.37;;
74995;SDS011;63545;51.690;5.202;2023-12-28T01:01:08;4.95;;;2.85;;
74995;SDS011;63545;51.690;5.202;2023-12-28T01:03:34;7.17;;;3.10;;
74995;SDS011;63545;51.690;5.202;2023-12-28T01:05:59;3.70;;;2.88;;
74995;SDS011;63545;51.690;5.202;2023-12-28T01:08:24;5.60;;;2.90;;
74995;SDS011;63545;51.690;5.202;2023-12-28T01:10:50;8.53;;;3.20;;
74995;SDS011;63545;51.690;5.202;2023-12-28T01:13:15;5.33;;;2.60;;
74995;SDS011;63545;51.690;5.202;2023-12-28T01:15:40;4.10;;;2.80;;
74995;SDS011;63545;51.690;5.202;2023-12-28T01:18:06;4.13;;;2.97;;
74995;SDS011;63545;51.690;5.202;2023-12-28T01:20:32;5.40;;;3.10;;
74995;SDS011;63545;51.690;5.202;2023-12-28T01:22:57;5.17;;;3.00;;
74995;SDS011;63545;51.690;5.202;2023-12-28T01:25:22;6.47;;;3.23;;
74995;SDS011;63545;51.690;5.202;2023-12-28T01:27:48;5.50;;;3.17;;
74995;SDS011;63545;51.690;5.202;2023-12-28T01:30:13;8.83;;;3.47;;
74995;SDS011;63545;51.690;5.202;2023-12-28T01:32:38;7.35;;;3.03;;
74995;SDS011;63545;51.690;5.202;2023-12-28T01:35:04;7.33;;;3.20;;
74995;SDS011;63545;51.690;5.202;2023-12-28T01:37:30;7.80;;;3.70;;
74995;SDS011;63545;51.690;5.202;2023-12-28T01:39:58;5.60;;;3.30;;
74995;SDS011;63545;51.690;5.202;2023-12-28T01:42:24;5.90;;;2.90;;
74995;SDS011;63545;51.690;5.202;2023-12-28T01:44:49;7.57;;;3.10;;
74995;SDS011;63545;51.690;5.202;2023-12-28T01:47:15;7.13;;;3.57;;
74995;SDS011;63545;51.690;5.202;2023-12-28T01:49:40;7.40;;;2.70;;
74995;SDS011;63545;51.690;5.202;2023-12-28T01:52:06;9.03;;;3.27;;
74995;SDS011;63545;51.690;5.202;2023-12-28T01:54:31;7.57;;;3.37;;
74995;SDS011;63545;51.690;5.202;2023-12-28T01:56:57;5.20;;;3.20;;
74995;SDS011;63545;51.690;5.202;2023-12-28T01:59:22;6.80;;;3.10;;
74995;SDS011;63545;51.690;5.202;2023-12-28T02:01:48;6.03;;;2.87;;
74995;SDS011;63545;51.690;5.202;2023-12-28T02:04:13;5.20;;;3.20;;
74995;SDS011;63545;51.690;5.202;2023-12-28T02:06:39;6.70;;;3.20;;
74995;SDS011;63545;51.690;5.202;2023-12-28T02:09:04;5.33;;;3.13;;
74995;SDS011;63545;51.690;5.202;2023-12-28T02:11:30;5.20;;;2.80;;
74995;SDS011;63545;51.690;5.202;2023-12-28T02:13:55;8.07;;;3.35;;
74995;SDS011;63545;51.690;5.202;2023-12-28T02:18:50;6.60;;;3.20;;
74995;SDS011;63545;51.690;5.202;2023-12-28T02:21:17;8.38;;;3.10;;
74995;SDS011;63545;51.690;5.202;2023-12-28T02:23:49;3.65;;;2.40;;
74995;SDS011;63545;51.690;5.202;2023-12-28T02:26:18;7.72;;;3.25;;
74995;SDS011;63545;51.690;5.202;2023-12-28T02:28:44;9.50;;;3.10;;
74995;SDS011;63545;51.690;5.202;2023-12-28T02:31:11;5.25;;;3.00;;
74995;SDS011;63545;51.690;5.202;2023-12-28T02:33:50;7.45;;;3.08;;
74995;SDS011;63545;51.690;5.202;2023-12-28T02:36:18;10.13;;;3.00;;
74995;SDS011;63545;51.690;5.202;2023-12-28T02:38:44;5.30;;;2.78;;
74995;SDS011;63545;51.690;5.202;2023-12-28T02:41:09;7.23;;;2.87;;
74995;SDS011;63545;51.690;5.202;2023-12-28T02:43:35;6.05;;;2.78;;
74995;SDS011;63545;51.690;5.202;2023-12-28T02:46:01;8.17;;;3.13;;
74995;SDS011;63545;51.690;5.202;2023-12-28T02:48:26;7.27;;;2.93;;
74995;SDS011;63545;51.690;5.202;2023-12-28T02:50:51;5.33;;;2.80;;
74995;SDS011;63545;51.690;5.202;2023-12-28T02:53:17;9.67;;;2.73;;
74995;SDS011;63545;51.690;5.202;2023-12-28T02:55:42;5.60;;;2.50;;
74995;SDS011;63545;51.690;5.202;2023-12-28T02:58:07;8.67;;;2.93;;
74995;SDS011;63545;51.690;5.202;2023-12-28T03:00:33;4.93;;;2.57;;
74995;SDS011;63545;51.690;5.202;2023-12-28T03:02:58;6.20;;;2.70;;
74995;SDS011;63545;51.690;5.202;2023-12-28T03:05:24;8.47;;;2.57;;
74995;SDS011;63545;51.690;5.202;2023-12-28T03:07:49;7.00;;;2.80;;
74995;SDS011;63545;51.690;5.202;2023-12-28T03:10:14;10.57;;;2.80;;
74995;SDS011;63545;51.690;5.202;2023-12-28T03:12:40;7.43;;;2.73;;
74995;SDS011;63545;51.690;5.202;2023-12-28T03:15:06;7.97;;;3.10;;
74995;SDS011;63545;51.690;5.202;2023-12-28T03:17:31;6.22;;;2.58;;
74995;SDS011;63545;51.690;5.202;2023-12-28T03:20:01;6.60;;;2.90;;
74995;SDS011;63545;51.690;5.202;2023-12-28T03:22:26;9.73;;;2.90;;
74995;SDS011;63545;51.690;5.202;2023-12-28T03:24:52;5.83;;;2.80;;
74995;SDS011;63545;51.690;5.202;2023-12-28T03:27:17;9.48;;;2.67;;
74995;SDS011;63545;51.690;5.202;2023-12-28T03:29:42;10.27;;;2.30;;
74995;SDS011;63545;51.690;5.202;2023-12-28T03:32:08;12.37;;;2.90;;
74995;SDS011;63545;51.690;5.202;2023-12-28T03:34:33;7.83;;;2.50;;
74995;SDS011;63545;51.690;5.202;2023-12-28T03:36:59;7.57;;;2.38;;
74995;SDS011;63545;51.690;5.202;2023-12-28T03:39:24;9.73;;;2.53;;
74995;SDS011;63545;51.690;5.202;2023-12-28T03:41:49;6.77;;;2.63;;
74995;SDS011;63545;51.690;5.202;2023-12-28T03:44:15;8.07;;;2.70;;
74995;SDS011;63545;51.690;5.202;2023-12-28T03:46:40;5.83;;;2.57;;
74995;SDS011;63545;51.690;5.202;2023-12-28T03:49:06;10.00;;;2.67;;
74995;SDS011;63545;51.690;5.202;2023-12-28T03:51:31;11.20;;;3.43;;
74995;SDS011;63545;51.690;5.202;2023-12-28T03:53:56;8.90;;;2.80;;
74995;SDS011;63545;51.690;5.202;2023-12-28T03:56:22;9.43;;;2.77;;
74995;SDS011;63545;51.690;5.202;2023-12-28T03:58:49;9.57;;;2.67;;
74995;SDS011;63545;51.690;5.202;2023-12-28T04:01:15;11.47;;;3.00;;
74995;SDS011;63545;51.690;5.202;2023-12-28T04:03:41;9.70;;;2.80;;
74995;SDS011;63545;51.690;5.202;2023-12-28T04:06:07;9.37;;;2.40;;
74995;SDS011;63545;51.690;5.202;2023-12-28T04:08:32;11.90;;;2.70;;
74995;SDS011;63545;51.690;5.202;2023-12-28T04:10:57;8.05;;;2.67;;
74995;SDS011;63545;51.690;5.202;2023-12-28T04:13:23;9.87;;;2.33;;
74995;SDS011;63545;51.690;5.202;2023-12-28T04:15:48;13.13;;;2.67;;
74995;SDS011;63545;51.690;5.202;2023-12-28T04:18:13;12.50;;;2.50;;
74995;SDS011;63545;51.690;5.202;2023-12-28T04:20:39;8.23;;;2.40;;
74995;SDS011;63545;51.690;5.202;2023-12-28T04:23:04;8.93;;;2.60;;
74995;SDS011;63545;51.690;5.202;2023-12-28T04:25:29;5.77;;;2.20;;
74995;SDS011;63545;51.690;5.202;2023-12-28T04:27:55;10.87;;;2.73;;
74995;SDS011;63545;51.690;5.202;2023-12-28T04:30:20;8.73;;;2.45;;
74995;SDS011;63545;51.690;5.202;2023-12-28T04:32:45;9.20;;;2.40;;
74995;SDS011;63545;51.690;5.202;2023-12-28T04:35:11;12.47;;;2.47;;
74995;SDS011;63545;51.690;5.202;2023-12-28T04:37:36;9.63;;;2.30;;
74995;SDS011;63545;51.690;5.202;2023-12-28T04:40:01;10.73;;;2.30;;
74995;SDS011;63545;51.690;5.202;2023-12-28T04:42:28;10.80;;;2.70;;
74995;SDS011;63545;51.690;5.202;2023-12-28T04:44:54;9.03;;;2.20;;
74995;SDS011;63545;51.690;5.202;2023-12-28T04:47:19;9.27;;;2.37;;
74995;SDS011;63545;51.690;5.202;2023-12-28T04:49:44;10.77;;;2.47;;
74995;SDS011;63545;51.690;5.202;2023-12-28T04:52:09;13.93;;;2.77;;
74995;SDS011;63545;51.690;5.202;2023-12-28T04:54:35;15.65;;;3.05;;
74995;SDS011;63545;51.690;5.202;2023-12-28T04:57:00;8.77;;;2.63;;
74995;SDS011;63545;51.690;5.202;2023-12-28T04:59:26;10.50;;;2.00;;
74995;SDS011;63545;51.690;5.202;2023-12-28T05:01:51;6.10;;;2.20;;
74995;SDS011;63545;51.690;5.202;2023-12-28T05:04:16;11.33;;;2.63;;
74995;SDS011;63545;51.690;5.202;2023-12-28T05:06:42;12.97;;;2.73;;
74995;SDS011;63545;51.690;5.202;2023-12-28T05:09:07;12.13;;;2.37;;
74995;SDS011;63545;51.690;5.202;2023-12-28T05:11:32;10.77;;;2.53;;
74995;SDS011;63545;51.690;5.202;2023-12-28T05:13:58;11.45;;;2.28;;
74995;SDS011;63545;51.690;5.202;2023-12-28T05:16:23;11.23;;;2.33;;
74995;SDS011;63545;51.690;5.202;2023-12-28T05:18:49;13.47;;;2.23;;
74995;SDS011;63545;51.690;5.202;2023-12-28T05:21:14;11.57;;;2.10;;
74995;SDS011;63545;51.690;5.202;2023-12-28T05:23:39;11.63;;;2.53;;
74995;SDS011;63545;51.690;5.202;2023-12-28T05:26:05;11.43;;;2.40;;
74995;SDS011;63545;51.690;5.202;2023-12-28T05:28:31;10.27;;;2.23;;
74995;SDS011;63545;51.690;5.202;2023-12-28T05:30:56;12.05;;;2.20;;
74995;SDS011;63545;51.690;5.202;2023-12-28T05:33:23;9.45;;;2.00;;
74995;SDS011;63545;51.690;5.202;2023-12-28T05:35:49;23.77;;;2.97;;
74995;SDS011;63545;51.690;5.202;2023-12-28T05:38:14;10.97;;;2.00;;
74995;SDS011;63545;51.690;5.202;2023-12-28T05:40:40;16.27;;;2.83;;
74995;SDS011;63545;51.690;5.202;2023-12-28T05:43:05;10.17;;;2.30;;
74995;SDS011;63545;51.690;5.202;2023-12-28T05:45:30;10.20;;;2.40;;
74995;SDS011;63545;51.690;5.202;2023-12-28T05:47:57;9.03;;;1.87;;
74995;SDS011;63545;51.690;5.202;2023-12-28T05:50:22;16.40;;;2.80;;
74995;SDS011;63545;51.690;5.202;2023-12-28T05:52:47;13.65;;;2.47;;
74995;SDS011;63545;51.690;5.202;2023-12-28T05:55:13;8.63;;;2.03;;
74995;SDS011;63545;51.690;5.202;2023-12-28T05:57:38;14.63;;;2.30;;
74995;SDS011;63545;51.690;5.202;2023-12-28T06:00:03;10.23;;;2.43;;
74995;SDS011;63545;51.690;5.202;2023-12-28T06:02:31;14.27;;;2.75;;
74995;SDS011;63545;51.690;5.202;2023-12-28T06:04:56;13.47;;;2.70;;
74995;SDS011;63545;51.690;5.202;2023-12-28T06:07:22;9.70;;;2.43;;
74995;SDS011;63545;51.690;5.202;2023-12-28T06:09:47;12.50;;;2.43;;
74995;SDS011;63545;51.690;5.202;2023-12-28T06:12:12;12.07;;;2.40;;
74995;SDS011;63545;51.690;5.202;2023-12-28T06:14:38;15.13;;;2.60;;
74995;SDS011;63545;51.690;5.202;2023-12-28T06:17:03;14.83;;;3.03;;
74995;SDS011;63545;51.690;5.202;2023-12-28T06:19:28;12.40;;;2.20;;
74995;SDS011;63545;51.690;5.202;2023-12-28T06:21:54;13.03;;;2.17;;
74995;SDS011;63545;51.690;5.202;2023-12-28T06:24:20;8.95;;;2.33;;
74995;SDS011;63545;51.690;5.202;2023-12-28T06:26:45;13.20;;;3.23;;
74995;SDS011;63545;51.690;5.202;2023-12-28T06:29:10;12.87;;;2.40;;
74995;SDS011;63545;51.690;5.202;2023-12-28T06:31:36;14.93;;;2.00;;
74995;SDS011;63545;51.690;5.202;2023-12-28T06:34:02;16.70;;;2.70;;
74995;SDS011;63545;51.690;5.202;2023-12-28T06:36:28;15.93;;;3.13;;
74995;SDS011;63545;51.690;5.202;2023-12-28T06:38:54;14.20;;;2.77;;
74995;SDS011;63545;51.690;5.202;2023-12-28T06:41:19;8.32;;;2.00;;
74995;SDS011;63545;51.690;5.202;2023-12-28T06:43:44;18.07;;;2.87;;
74995;SDS011;63545;51.690;5.202;2023-12-28T06:46:10;11.67;;;2.50;;
74995;SDS011;63545;51.690;5.202;2023-12-28T06:48:35;15.27;;;2.40;;
74995;SDS011;63545;51.690;5.202;2023-12-28T06:51:01;12.07;;;2.30;;
74995;SDS011;63545;51.690;5.202;2023-12-28T06:53:27;15.77;;;2.20;;
74995;SDS011;63545;51.690;5.202;2023-12-28T06:55:52;10.37;;;1.73;;
74995;SDS011;63545;51.690;5.202;2023-12-28T06:58:17;12.43;;;2.37;;
74995;SDS011;63545;51.690;5.202;2023-12-28T07:00:43;16.15;;;3.10;;
74995;SDS011;63545;51.690;5.202;2023-12-28T07:03:09;13.50;;;2.57;;
74995;SDS011;63545;51.690;5.202;2023-12-28T07:05:34;15.47;;;2.70;;
74995;SDS011;63545;51.690;5.202;2023-12-28T07:08:00;10.20;;;2.20;;
74995;SDS011;63545;51.690;5.202;2023-12-28T07:10:25;13.00;;;2.70;;
74995;SDS011;63545;51.690;5.202;2023-12-28T07:12:51;14.10;;;2.50;;
74995;SDS011;63545;51.690;5.202;2023-12-28T07:15:16;16.48;;;2.38;;
74995;SDS011;63545;51.690;5.202;2023-12-28T07:17:41;12.53;;;2.30;;
74995;SDS011;63545;51.690;5.202;2023-12-28T07:20:07;12.13;;;2.30;;
74995;SDS011;63545;51.690;5.202;2023-12-28T07:22:35;18.85;;;2.92;;
74995;SDS011;63545;51.690;5.202;2023-12-28T07:25:01;16.20;;;2.93;;
74995;SDS011;63545;51.690;5.202;2023-12-28T07:27:26;12.90;;;2.67;;
74995;SDS011;63545;51.690;5.202;2023-12-28T07:29:51;11.43;;;2.20;;
74995;SDS011;63545;51.690;5.202;2023-12-28T07:32:17;12.57;;;2.25;;
74995;SDS011;63545;51.690;5.202;2023-12-28T07:34:42;14.50;;;2.57;;
74995;SDS011;63545;51.690;5.202;2023-12-28T07:37:07;12.80;;;2.30;;
74995;SDS011;63545;51.690;5.202;2023-12-28T07:39:33;18.27;;;2.60;;
74995;SDS011;63545;51.690;5.202;2023-12-28T07:41:59;18.92;;;2.78;;
74995;SDS011;63545;51.690;5.202;2023-12-28T07:44:24;21.20;;;3.07;;
74995;SDS011;63545;51.690;5.202;2023-12-28T07:46:50;17.77;;;3.30;;
74995;SDS011;63545;51.690;5.202;2023-12-28T07:49:15;14.83;;;2.50;;
74995;SDS011;63545;51.690;5.202;2023-12-28T07:51:40;19.58;;;2.42;;
74995;SDS011;63545;51.690;5.202;2023-12-28T07:54:06;16.47;;;2.57;;
74995;SDS011;63545;51.690;5.202;2023-12-28T07:56:31;13.03;;;2.10;;
74995;SDS011;63545;51.690;5.202;2023-12-28T07:58:56;19.00;;;2.90;;
74995;SDS011;63545;51.690;5.202;2023-12-28T08:01:22;18.97;;;2.67;;
74995;SDS011;63545;51.690;5.202;2023-12-28T08:03:47;19.40;;;2.80;;
74995;SDS011;63545;51.690;5.202;2023-12-28T08:06:13;15.90;;;2.33;;
74995;SDS011;63545;51.690;5.202;2023-12-28T08:08:38;19.90;;;3.47;;
74995;SDS011;63545;51.690;5.202;2023-12-28T08:11:04;17.00;;;3.27;;
74995;SDS011;63545;51.690;5.202;2023-12-28T08:13:29;17.60;;;2.93;;
74995;SDS011;63545;51.690;5.202;2023-12-28T08:15:54;20.40;;;3.20;;
74995;SDS011;63545;51.690;5.202;2023-12-28T08:18:20;17.15;;;2.42;;
74995;SDS011;63545;51.690;5.202;2023-12-28T08:20:45;15.17;;;2.80;;
74995;SDS011;63545;51.690;5.202;2023-12-28T08:23:11;15.43;;;2.67;;
74995;SDS011;63545;51.690;5.202;2023-12-28T08:25:36;19.97;;;2.53;;
74995;SDS011;63545;51.690;5.202;2023-12-28T08:28:01;14.00;;;2.67;;
74995;SDS011;63545;51.690;5.202;2023-12-28T08:30:27;22.55;;;2.40;;
74995;SDS011;63545;51.690;5.202;2023-12-28T08:32:52;15.10;;;2.30;;
74995;SDS011;63545;51.690;5.202;2023-12-28T08:35:18;19.50;;;2.70;;
74995;SDS011;63545;51.690;5.202;2023-12-28T08:37:43;18.40;;;2.77;;
74995;SDS011;63545;51.690;5.202;2023-12-28T08:40:09;14.75;;;2.45;;
74995;SDS011;63545;51.690;5.202;2023-12-28T08:42:34;13.67;;;2.70;;
74995;SDS011;63545;51.690;5.202;2023-12-28T08:45:00;16.90;;;2.90;;
74995;SDS011;63545;51.690;5.202;2023-12-28T08:47:25;20.37;;;3.13;;
74995;SDS011;63545;51.690;5.202;2023-12-28T08:49:50;14.23;;;2.50;;
74995;SDS011;63545;51.690;5.202;2023-12-28T08:52:16;13.40;;;2.17;;
74995;SDS011;63545;51.690;5.202;2023-12-28T08:54:41;16.77;;;2.25;;
74995;SDS011;63545;51.690;5.202;2023-12-28T08:57:06;14.70;;;2.30;;
74995;SDS011;63545;51.690;5.202;2023-12-28T08:59:35;13.60;;;2.47;;
74995;SDS011;63545;51.690;5.202;2023-12-28T09:02:01;13.70;;;1.92;;
74995;SDS011;63545;51.690;5.202;2023-12-28T09:04:26;15.67;;;2.87;;
74995;SDS011;63545;51.690;5.202;2023-12-28T09:06:52;13.87;;;2.00;;
74995;SDS011;63545;51.690;5.202;2023-12-28T09:09:17;20.17;;;2.30;;
74995;SDS011;63545;51.690;5.202;2023-12-28T09:11:43;22.90;;;2.83;;
74995;SDS011;63545;51.690;5.202;2023-12-28T09:14:08;22.37;;;2.70;;
74995;SDS011;63545;51.690;5.202;2023-12-28T09:16:33;17.67;;;2.60;;
74995;SDS011;63545;51.690;5.202;2023-12-28T09:19:00;17.30;;;2.50;;
74995;SDS011;63545;51.690;5.202;2023-12-28T09:21:25;13.97;;;2.10;;
74995;SDS011;63545;51.690;5.202;2023-12-28T09:23:51;18.98;;;3.00;;
74995;SDS011;63545;51.690;5.202;2023-12-28T09:26:16;12.53;;;2.30;;
74995;SDS011;63545;51.690;5.202;2023-12-28T09:28:43;14.80;;;2.53;;
74995;SDS011;63545;51.690;5.202;2023-12-28T09:31:08;15.07;;;2.45;;
74995;SDS011;63545;51.690;5.202;2023-12-28T09:33:34;15.77;;;2.37;;
74995;SDS011;63545;51.690;5.202;2023-12-28T09:35:59;18.15;;;2.53;;
74995;SDS011;63545;51.690;5.202;2023-12-28T09:38:25;14.40;;;2.53;;
74995;SDS011;63545;51.690;5.202;2023-12-28T09:40:52;11.48;;;2.50;;
74995;SDS011;63545;51.690;5.202;2023-12-28T09:43:25;14.60;;;2.63;;
74995;SDS011;63545;51.690;5.202;2023-12-28T09:45:51;12.13;;;2.60;;
74995;SDS011;63545;51.690;5.202;2023-12-28T09:48:18;13.30;;;2.38;;
74995;SDS011;63545;51.690;5.202;2023-12-28T09:50:44;16.48;;;2.28;;
74995;SDS011;63545;51.690;5.202;2023-12-28T09:53:10;20.13;;;2.65;;
74995;SDS011;63545;51.690;5.202;2023-12-28T09:55:36;15.00;;;2.10;;
74995;SDS011;63545;51.690;5.202;2023-12-28T09:58:02;20.70;;;2.70;;
74995;SDS011;63545;51.690;5.202;2023-12-28T10:00:30;13.20;;;1.90;;
74995;SDS011;63545;51.690;5.202;2023-12-28T10:02:56;22.38;;;2.92;;
74995;SDS011;63545;51.690;5.202;2023-12-28T10:05:21;12.80;;;2.40;;
74995;SDS011;63545;51.690;5.202;2023-12-28T10:07:47;19.95;;;2.83;;
74995;SDS011;63545;51.690;5.202;2023-12-28T10:10:13;18.50;;;2.80;;
74995;SDS011;63545;51.690;5.202;2023-12-28T10:12:39;20.83;;;3.42;;
74995;SDS011;63545;51.690;5.202;2023-12-28T10:15:05;21.20;;;2.80;;
74995;SDS011;63545;51.690;5.202;2023-12-28T10:17:33;12.98;;;2.85;;
74995;SDS011;63545;51.690;5.202;2023-12-28T10:20:00;18.92;;;2.78;;
74995;SDS011;63545;51.690;5.202;2023-12-28T10:22:29;17.60;;;2.53;;
74995;SDS011;63545;51.690;5.202;2023-12-28T10:24:55;17.03;;;2.53;;
74995;SDS011;63545;51.690;5.202;2023-12-28T10:27:20;16.67;;;2.60;;
74995;SDS011;63545;51.690;5.202;2023-12-28T10:29:46;14.83;;;2.20;;
74995;SDS011;63545;51.690;5.202;2023-12-28T10:32:11;13.60;;;2.50;;
74995;SDS011;63545;51.690;5.202;2023-12-28T10:34:36;23.30;;;2.67;;
74995;SDS011;63545;51.690;5.202;2023-12-28T10:37:02;16.73;;;2.30;;
74995;SDS011;63545;51.690;5.202;2023-12-28T10:39:27;13.07;;;2.07;;
74995;SDS011;63545;51.690;5.202;2023-12-28T10:41:58;16.50;;;2.90;;
74995;SDS011;63545;51.690;5.202;2023-12-28T10:44:24;19.52;;;3.00;;
74995;SDS011;63545;51.690;5.202;2023-12-28T10:46:54;18.05;;;2.47;;
74995;SDS011;63545;51.690;5.202;2023-12-28T10:49:22;22.05;;;2.80;;
74995;SDS011;63545;51.690;5.202;2023-12-28T10:51:51;22.07;;;2.73;;
74995;SDS011;63545;51.690;5.202;2023-12-28T11:00:04;21.00;;;2.53;;
74995;SDS011;63545;51.690;5.202;2023-12-28T11:02:38;20.15;;;2.70;;
74995;SDS011;63545;51.690;5.202;2023-12-28T11:05:06;18.07;;;2.97;;
74995;SDS011;63545;51.690;5.202;2023-12-28T11:07:32;19.45;;;2.53;;
74995;SDS011;63545;51.690;5.202;2023-12-28T11:10:01;19.35;;;2.80;;
74995;SDS011;63545;51.690;5.202;2023-12-28T11:12:29;17.25;;;2.63;;
74995;SDS011;63545;51.690;5.202;2023-12-28T11:14:56;19.73;;;2.95;;
74995;SDS011;63545;51.690;5.202;2023-12-28T11:17:22;16.23;;;2.90;;
74995;SDS011;63545;51.690;5.202;2023-12-28T11:19:49;19.75;;;2.53;;
74995;SDS011;63545;51.690;5.202;2023-12-28T11:22:17;17.33;;;2.72;;
74995;SDS011;63545;51.690;5.202;2023-12-28T11:24:42;16.43;;;2.37;;
74995;SDS011;63545;51.690;5.202;2023-12-28T11:27:07;17.23;;;2.53;;
74995;SDS011;63545;51.690;5.202;2023-12-28T11:29:33;17.55;;;2.35;;
74995;SDS011;63545;51.690;5.202;2023-12-28T11:31:59;17.52;;;2.83;;
74995;SDS011;63545;51.690;5.202;2023-12-28T11:34:28;17.93;;;2.33;;
74995;SDS011;63545;51.690;5.202;2023-12-28T11:36:55;17.65;;;2.50;;
74995;SDS011;63545;51.690;5.202;2023-12-28T11:41:59;18.23;;;3.58;;
74995;SDS011;63545;51.690;5.202;2023-12-28T11:44:30;22.08;;;2.60;;
74995;SDS011;63545;51.690;5.202;2023-12-28T11:46:56;20.13;;;3.17;;
74995;SDS011;63545;51.690;5.202;2023-12-28T11:49:25;25.50;;;3.25;;
74995;SDS011;63545;51.690;5.202;2023-12-28T11:51:55;21.00;;;2.80;;
74995;SDS011;63545;51.690;5.202;2023-12-28T11:54:22;23.67;;;2.50;;
74995;SDS011;63545;51.690;5.202;2023-12-28T11:56:47;17.07;;;3.03;;
74995;SDS011;63545;51.690;5.202;2023-12-28T11:59:12;19.83;;;2.60;;
74995;SDS011;63545;51.690;5.202;2023-12-28T12:01:37;20.13;;;3.17;;
74995;SDS011;63545;51.690;5.202;2023-12-28T12:04:03;20.67;;;2.70;;
74995;SDS011;63545;51.690;5.202;2023-12-28T12:06:28;17.60;;;2.60;;
74995;SDS011;63545;51.690;5.202;2023-12-28T12:08:54;19.30;;;2.65;;
74995;SDS011;63545;51.690;5.202;2023-12-28T12:11:19;23.73;;;3.00;;
74995;SDS011;63545;51.690;5.202;2023-12-28T12:13:44;15.27;;;2.50;;
74995;SDS011;63545;51.690;5.202;2023-12-28T12:16:10;18.40;;;2.70;;
74995;SDS011;63545;51.690;5.202;2023-12-28T12:18:38;18.88;;;2.55;;
74995;SDS011;63545;51.690;5.202;2023-12-28T12:21:03;20.77;;;2.70;;
74995;SDS011;63545;51.690;5.202;2023-12-28T12:23:29;23.30;;;3.43;;
74995;SDS011;63545;51.690;5.202;2023-12-28T12:25:55;21.70;;;2.65;;
74995;SDS011;63545;51.690;5.202;2023-12-28T12:28:20;18.17;;;2.90;;
74995;SDS011;63545;51.690;5.202;2023-12-28T12:30:50;21.13;;;2.20;;
74995;SDS011;63545;51.690;5.202;2023-12-28T12:33:16;23.40;;;2.53;;
74995;SDS011;63545;51.690;5.202;2023-12-28T12:35:41;17.43;;;2.57;;
74995;SDS011;63545;51.690;5.202;2023-12-28T12:38:07;20.40;;;2.80;;
74995;SDS011;63545;51.690;5.202;2023-12-28T12:40:33;16.45;;;2.85;;
74995;SDS011;63545;51.690;5.202;2023-12-28T12:42:59;21.83;;;2.73;;
74995;SDS011;63545;51.690;5.202;2023-12-28T12:45:25;13.03;;;2.17;;
74995;SDS011;63545;51.690;5.202;2023-12-28T12:47:51;20.70;;;2.77;;
74995;SDS011;63545;51.690;5.202;2023-12-28T12:50:16;21.58;;;2.60;;
74995;SDS011;63545;51.690;5.202;2023-12-28T12:52:42;19.40;;;2.90;;
74995;SDS011;63545;51.690;5.202;2023-12-28T12:55:10;18.50;;;2.80;;
74995;SDS011;63545;51.690;5.202;2023-12-28T12:57:36;23.90;;;2.92;;
74995;SDS011;63545;51.690;5.202;2023-12-28T13:00:03;19.73;;;2.75;;
74995;SDS011;63545;51.690;5.202;2023-12-28T13:02:33;19.20;;;2.70;;
74995;SDS011;63545;51.690;5.202;2023-12-28T13:04:58;19.80;;;2.80;;
74995;SDS011;63545;51.690;5.202;2023-12-28T13:07:24;19.85;;;3.08;;
74995;SDS011;63545;51.690;5.202;2023-12-28T13:09:50;18.03;;;2.93;;
74995;SDS011;63545;51.690;5.202;2023-12-28T13:12:16;16.20;;;2.90;;
74995;SDS011;63545;51.690;5.202;2023-12-28T13:14:41;16.95;;;2.67;;
74995;SDS011;63545;51.690;5.202;2023-12-28T13:17:09;15.35;;;2.83;;
74995;SDS011;63545;51.690;5.202;2023-12-28T13:19:34;19.63;;;2.60;;
74995;SDS011;63545;51.690;5.202;2023-12-28T13:22:00;22.40;;;3.47;;
74995;SDS011;63545;51.690;5.202;2023-12-28T13:24:25;18.33;;;2.70;;
74995;SDS011;63545;51.690;5.202;2023-12-28T13:26:50;17.40;;;3.13;;
74995;SDS011;63545;51.690;5.202;2023-12-28T13:29:16;19.90;;;2.90;;
74995;SDS011;63545;51.690;5.202;2023-12-28T13:31:41;20.67;;;3.07;;
74995;SDS011;63545;51.690;5.202;2023-12-28T13:34:06;29.10;;;3.50;;
74995;SDS011;63545;51.690;5.202;2023-12-28T13:36:32;16.98;;;2.83;;
74995;SDS011;63545;51.690;5.202;2023-12-28T13:38:58;17.17;;;2.83;;
74995;SDS011;63545;51.690;5.202;2023-12-28T13:41:23;21.00;;;3.03;;
74995;SDS011;63545;51.690;5.202;2023-12-28T13:43:49;21.27;;;3.30;;
74995;SDS011;63545;51.690;5.202;2023-12-28T13:46:14;19.20;;;2.50;;
74995;SDS011;63545;51.690;5.202;2023-12-28T13:48:39;15.10;;;3.10;;
74995;SDS011;63545;51.690;5.202;2023-12-28T13:51:05;19.30;;;2.73;;
74995;SDS011;63545;51.690;5.202;2023-12-28T13:53:31;18.30;;;2.67;;
74995;SDS011;63545;51.690;5.202;2023-12-28T13:56:00;25.13;;;2.70;;
74995;SDS011;63545;51.690;5.202;2023-12-28T13:58:26;20.80;;;2.70;;
74995;SDS011;63545;51.690;5.202;2023-12-28T14:00:51;15.77;;;2.83;;
74995;SDS011;63545;51.690;5.202;2023-12-28T14:03:16;17.83;;;2.60;;
74995;SDS011;63545;51.690;5.202;2023-12-28T14:05:42;22.33;;;2.80;;
74995;SDS011;63545;51.690;5.202;2023-12-28T14:08:08;21.60;;;3.50;;
74995;SDS011;63545;51.690;5.202;2023-12-28T14:10:33;13.03;;;2.10;;
74995;SDS011;63545;51.690;5.202;2023-12-28T14:12:58;19.10;;;2.67;;
74995;SDS011;63545;51.690;5.202;2023-12-28T14:15:24;16.70;;;2.40;;
74995;SDS011;63545;51.690;5.202;2023-12-28T14:17:49;20.20;;;2.87;;
74995;SDS011;63545;51.690;5.202;2023-12-28T14:20:14;22.80;;;3.63;;
74995;SDS011;63545;51.690;5.202;2023-12-28T14:22:40;26.57;;;2.90;;
74995;SDS011;63545;51.690;5.202;2023-12-28T14:25:06;14.40;;;2.95;;
74995;SDS011;63545;51.690;5.202;2023-12-28T14:27:32;15.45;;;2.47;;
74995;SDS011;63545;51.690;5.202;2023-12-28T14:29:57;22.27;;;2.93;;
74995;SDS011;63545;51.690;5.202;2023-12-28T14:32:23;17.23;;;2.40;;
74995;SDS011;63545;51.690;5.202;2023-12-28T14:34:49;15.10;;;2.30;;
74995;SDS011;63545;51.690;5.202;2023-12-28T14:37:14;16.95;;;2.53;;
74995;SDS011;63545;51.690;5.202;2023-12-28T14:39:40;21.17;;;2.33;;